Terminal Aerodrome Forecast
Issued by NWS

Home | Current Version | Previous Version | Text Only | Print | Product List | Glossary Off
Versions: 1 2 3 4 5 6 7 8 9 10 11 12 13 14 15 16 17 18 19

100
FTUS43 KIWX 182340
TAFSBN
TAF
KSBN 182340Z 1900/1924 11010KT P6SM -SHRA SCT015 OVC024
      TEMPO 1900/1902 5SM -SHRA OVC015
     FM190200 09011KT 5SM -SHRA BR OVC010
     FM190600 13008KT 4SM -RA BR OVC007
     FM191600 22005KT P6SM VCSH OVC010
     FM192000 30008KT P6SM BKN020=

USA.gov is the U.S. government's official web portal to all federal, state and local government web resources and services.